createdAt,value
2019-03-04T00:03:29.339Z,11.90
2019-03-04T00:08:33.073Z,11.70
2019-03-04T00:13:37.138Z,11.70
2019-03-04T00:18:41.144Z,11.70
2019-03-04T00:23:44.862Z,11.80
2019-03-04T00:28:48.931Z,11.90
2019-03-04T00:33:52.620Z,11.90
2019-03-04T00:38:56.330Z,11.90
2019-03-04T00:43:59.989Z,11.80
2019-03-04T00:49:03.727Z,11.80
2019-03-04T00:54:07.693Z,11.70
2019-03-04T00:59:11.628Z,11.50
2019-03-04T01:04:15.324Z,11.40
2019-03-04T01:09:19.087Z,11.30
2019-03-04T01:14:23.060Z,11.20
2019-03-04T01:19:26.734Z,11.40
2019-03-04T01:24:30.779Z,11.20
2019-03-04T01:29:34.684Z,11.30
2019-03-04T01:34:38.374Z,11.20
2019-03-04T01:39:42.118Z,11.10
2019-03-04T01:44:45.787Z,10.90
2019-03-04T01:49:49.460Z,10.80
2019-03-04T01:54:53.398Z,10.90
2019-03-04T01:59:57.474Z,11.00
2019-03-04T02:05:01.429Z,11.30
2019-03-04T02:10:06.076Z,11.30
2019-03-04T02:15:11.573Z,11.20
2019-03-04T02:20:16.510Z,11.20
2019-03-04T02:25:23.706Z,11.30
2019-03-04T02:30:28.091Z,11.30
2019-03-04T02:35:31.783Z,11.40
2019-03-04T02:40:35.433Z,11.60
2019-03-04T02:45:39.353Z,11.80
2019-03-04T02:50:43.027Z,11.80
2019-03-04T02:55:46.979Z,11.70
2019-03-04T03:00:50.654Z,11.50
2019-03-04T03:05:54.415Z,11.30
2019-03-04T03:10:58.531Z,11.20
2019-03-04T03:16:02.289Z,11.00
2019-03-04T03:21:06.248Z,10.70
2019-03-04T03:26:10.145Z,10.50
2019-03-04T03:31:14.048Z,10.20
2019-03-04T03:36:17.915Z,10.00
2019-03-04T03:41:21.844Z,10.40
2019-03-04T03:46:25.507Z,10.30
2019-03-04T03:51:29.637Z,10.30
2019-03-04T03:56:33.320Z,10.60
2019-03-04T04:01:36.983Z,10.40
2019-03-04T04:06:40.971Z,10.30
2019-03-04T04:11:44.627Z,10.20
2019-03-04T04:16:48.300Z,10.20
2019-03-04T04:21:52.008Z,10.20
2019-03-04T04:26:55.686Z,10.00
2019-03-04T04:31:59.436Z,9.90
2019-03-04T04:37:03.179Z,9.90
2019-03-04T04:42:06.851Z,9.90
2019-03-04T04:47:10.848Z,10.00
2019-03-04T04:52:14.893Z,10.10
2019-03-04T04:57:18.544Z,10.30
2019-03-04T05:02:22.202Z,10.40
2019-03-04T05:07:26.117Z,10.50
2019-03-04T05:12:29.802Z,10.70
2019-03-04T05:17:33.482Z,10.90
2019-03-04T05:22:37.403Z,10.90
2019-03-04T05:27:41.057Z,11.00
2019-03-04T05:32:44.729Z,11.00
2019-03-04T05:37:48.423Z,11.00
2019-03-04T05:42:52.083Z,11.00
2019-03-04T05:47:56.190Z,11.10
2019-03-04T05:53:00.115Z,11.10
2019-03-04T05:58:04.136Z,11.10
2019-03-04T06:03:08.501Z,11.20
2019-03-04T06:08:12.193Z,11.70
2019-03-04T06:13:16.246Z,12.00
2019-03-04T06:18:19.983Z,12.40
2019-03-04T06:23:23.973Z,12.60
2019-03-04T06:28:27.718Z,12.70
2019-03-04T06:33:31.664Z,12.80
2019-03-04T06:38:35.359Z,12.90
2019-03-04T06:43:39.062Z,13.10
2019-03-04T06:48:42.763Z,13.10
2019-03-04T06:54:08.842Z,13.20
2019-03-04T06:59:37.242Z,13.30
2019-03-04T07:05:07.262Z,13.30
2019-03-04T07:10:11.032Z,13.40
2019-03-04T07:15:14.776Z,13.50
2019-03-04T07:20:18.680Z,13.60
2019-03-04T07:25:22.671Z,13.70
2019-03-04T07:30:26.340Z,13.60
2019-03-04T07:35:30.028Z,13.50
2019-03-04T07:40:33.761Z,13.60
2019-03-04T07:45:37.501Z,13.60
2019-03-04T07:50:41.324Z,13.70
2019-03-04T07:55:45.380Z,13.60
2019-03-04T08:00:49.075Z,13.40
2019-03-04T08:05:52.800Z,12.90
2019-03-04T08:11:24.630Z,12.90
2019-03-04T08:16:28.401Z,13.00
2019-03-04T08:21:32.477Z,13.10
2019-03-04T08:26:36.768Z,13.10
2019-03-04T08:31:40.873Z,13.10
2019-03-04T08:36:44.610Z,13.10
2019-03-04T08:41:48.342Z,13.10
2019-03-04T08:46:52.128Z,13.10
2019-03-04T08:51:55.916Z,13.10
2019-03-04T08:57:03.871Z,13.10
2019-03-04T09:02:06.213Z,13.30
2019-03-04T09:07:10.282Z,13.30
2019-03-04T09:12:13.942Z,13.30
2019-03-04T09:17:17.699Z,13.20
2019-03-04T09:22:21.626Z,13.20
2019-03-04T09:27:25.297Z,13.30
2019-03-04T09:32:28.983Z,13.60
2019-03-04T09:37:32.671Z,14.00
2019-03-04T09:42:36.376Z,14.30
2019-03-04T09:47:40.195Z,14.10
2019-03-04T09:52:44.068Z,14.10
2019-03-04T09:57:47.882Z,15.20
2019-03-04T10:02:51.974Z,14.90
2019-03-04T10:08:40.746Z,14.80
2019-03-04T10:14:00.440Z,15.50
2019-03-04T10:19:51.248Z,21.60
2019-03-04T10:25:20.198Z,22.40
2019-03-04T10:30:37.430Z,19.20
2019-03-04T10:35:46.823Z,17.90
2019-03-04T10:41:14.256Z,17.20
2019-03-04T10:46:25.082Z,17.10
2019-03-04T10:51:29.849Z,17.10
2019-03-04T10:56:33.605Z,16.80
2019-03-04T11:01:37.297Z,16.50
2019-03-04T11:06:41.142Z,16.50
2019-03-04T11:11:44.823Z,18.10
2019-03-04T11:16:48.518Z,17.40
2019-03-04T11:21:52.294Z,16.90
2019-03-04T11:26:56.374Z,16.90
2019-03-04T11:32:00.103Z,17.30
2019-03-04T11:37:03.906Z,17.30
2019-03-04T11:42:07.573Z,19.60
2019-03-04T11:47:11.258Z,20.80
2019-03-04T11:52:15.580Z,23.50
2019-03-04T11:57:19.596Z,25.90
2019-03-04T12:02:25.391Z,25.30
2019-03-04T12:07:29.194Z,23.30
2019-03-04T12:12:33.122Z,22.10
2019-03-04T12:17:36.882Z,23.00
2019-03-04T12:22:40.882Z,21.90
2019-03-04T12:27:44.818Z,21.90
2019-03-04T12:32:48.597Z,24.00
2019-03-04T12:37:53.570Z,24.60
2019-03-04T12:42:57.291Z,23.00
2019-03-04T12:48:01.112Z,19.00
2019-03-04T12:53:05.055Z,17.90
2019-03-04T12:58:08.734Z,17.70
2019-03-04T13:03:23.285Z,17.50
2019-03-04T13:08:26.968Z,17.20
2019-03-04T13:13:33.781Z,17.50
2019-03-04T13:18:37.560Z,18.50
2019-03-04T13:23:41.689Z,18.40
2019-03-04T13:28:45.499Z,17.00
2019-03-04T13:33:49.177Z,16.60
2019-03-04T13:38:52.893Z,16.20
2019-03-04T13:43:56.643Z,16.10
2019-03-04T13:49:00.507Z,16.20
2019-03-04T13:54:04.799Z,16.00
2019-03-04T13:59:08.596Z,15.80
2019-03-04T14:04:12.570Z,15.50
2019-03-04T14:09:19.223Z,15.40
2019-03-04T14:14:23.451Z,15.40
2019-03-04T14:19:27.527Z,15.30
2019-03-04T14:25:08.857Z,15.00
2019-03-04T14:30:15.138Z,15.00
2019-03-04T14:35:21.896Z,15.10
2019-03-04T14:40:33.123Z,15.10
2019-03-04T14:45:37.233Z,15.10
2019-03-04T14:50:41.135Z,15.00
2019-03-04T14:55:45.156Z,15.00
2019-03-04T15:00:50.414Z,15.10
2019-03-04T15:06:06.531Z,15.10
2019-03-04T15:11:05.853Z,14.90
2019-03-04T15:16:10.137Z,14.90
2019-03-04T15:21:14.313Z,14.70
2019-03-04T15:26:18.644Z,14.60
2019-03-04T15:31:22.575Z,14.50
2019-03-04T15:36:27.940Z,14.50
2019-03-04T15:41:31.616Z,14.40
2019-03-04T15:46:35.745Z,14.30
2019-03-04T15:51:39.562Z,14.20
2019-03-04T15:56:43.825Z,14.00
2019-03-04T16:01:47.716Z,14.00
2019-03-04T16:06:54.117Z,14.60
2019-03-04T16:11:59.459Z,15.40
2019-03-04T16:17:03.347Z,15.20
2019-03-04T16:22:10.153Z,14.90
2019-03-04T16:27:14.945Z,14.30
2019-03-04T16:32:19.270Z,13.90
2019-03-04T16:37:23.140Z,13.70
2019-03-04T16:42:26.897Z,13.60
2019-03-04T16:47:30.695Z,13.50
2019-03-04T16:52:34.663Z,13.40
2019-03-04T16:57:38.630Z,13.50
2019-03-04T17:02:42.459Z,13.40
2019-03-04T17:07:46.288Z,12.20
2019-03-04T17:12:50.054Z,11.10
2019-03-04T17:17:56.924Z,11.00
2019-03-04T17:23:00.822Z,10.90
2019-03-04T17:28:04.664Z,10.90
2019-03-04T17:33:08.571Z,11.10
2019-03-04T17:38:12.241Z,11.20
2019-03-04T17:43:15.936Z,11.30
2019-03-04T17:48:19.865Z,11.20
2019-03-04T17:53:23.830Z,11.30
2019-03-04T17:58:27.801Z,11.30
2019-03-04T18:03:31.929Z,11.30
2019-03-04T18:08:35.645Z,11.30
2019-03-04T18:13:39.415Z,11.30
2019-03-04T18:18:43.357Z,11.40
2019-03-04T18:23:47.029Z,11.00
2019-03-04T18:29:40.242Z,9.30
2019-03-04T18:35:25.200Z,8.40
2019-03-04T18:40:57.473Z,8.10
2019-03-04T18:46:43.455Z,8.00
2019-03-04T18:51:47.183Z,7.90
2019-03-04T18:56:50.950Z,7.80
2019-03-04T19:01:55.818Z,7.80
2019-03-04T19:06:59.924Z,7.70
2019-03-04T19:12:03.706Z,7.80
2019-03-04T19:17:07.955Z,7.80
2019-03-04T19:22:11.643Z,8.00
2019-03-04T19:27:15.799Z,7.90
2019-03-04T19:32:19.559Z,7.90
2019-03-04T19:37:23.495Z,7.80
2019-03-04T19:42:27.163Z,7.70
2019-03-04T19:47:31.087Z,7.50
2019-03-04T19:52:34.787Z,7.60
2019-03-04T19:57:38.911Z,7.50
2019-03-04T20:02:42.665Z,7.40
2019-03-04T20:07:46.485Z,7.40
2019-03-04T20:12:50.262Z,7.30
2019-03-04T20:17:56.392Z,7.30
2019-03-04T20:22:59.709Z,7.40
2019-03-04T20:28:03.905Z,7.40
2019-03-04T20:33:07.587Z,7.30
2019-03-04T20:38:11.366Z,7.30
2019-03-04T20:43:15.030Z,7.30
2019-03-04T20:48:18.691Z,7.20
2019-03-04T20:53:22.657Z,7.20
2019-03-04T20:58:26.360Z,7.20
2019-03-04T21:03:34.801Z,7.20
2019-03-04T21:08:36.322Z,7.30
2019-03-04T21:13:40.080Z,7.20
2019-03-04T21:18:44.085Z,7.20
2019-03-04T21:23:48.618Z,7.10
2019-03-04T21:29:04.172Z,7.20
2019-03-04T21:34:41.805Z,7.20
2019-03-04T21:39:49.115Z,7.10
2019-03-04T21:45:38.471Z,7.10
2019-03-04T21:51:10.529Z,7.10
2019-03-04T21:56:29.239Z,7.00
2019-03-04T22:01:38.514Z,6.90
2019-03-04T22:06:42.680Z,7.00
2019-03-04T22:11:46.677Z,6.80
2019-03-04T22:16:50.504Z,6.80
2019-03-04T22:21:54.294Z,6.70
2019-03-04T22:26:58.062Z,6.70
2019-03-04T22:32:01.736Z,6.80
2019-03-04T22:37:05.473Z,6.70
2019-03-04T22:42:09.129Z,6.80
2019-03-04T22:47:12.869Z,6.80
2019-03-04T22:52:16.570Z,6.80
2019-03-04T22:57:20.676Z,6.80
2019-03-04T23:02:26.368Z,6.90
2019-03-04T23:07:47.616Z,6.90
2019-03-04T23:12:55.146Z,6.90
2019-03-04T23:17:58.893Z,6.90
2019-03-04T23:23:02.801Z,6.90
2019-03-04T23:28:06.709Z,6.90
2019-03-04T23:33:10.375Z,6.80
2019-03-04T23:38:14.397Z,6.70
2019-03-04T23:43:18.126Z,6.80
2019-03-04T23:48:22.073Z,6.70
2019-03-04T23:53:26.065Z,6.70
2019-03-04T23:58:29.817Z,6.60
